sensor_id;sensor_type;location;lat;lon;timestamp;P1;durP1;ratioP1;P2;durP2;ratioP2
65560;SDS011;58166;52.100;6.308;2022-09-12T00:01:53;17.70;;;12.93;;
65560;SDS011;58166;52.100;6.308;2022-09-12T00:04:22;19.00;;;13.23;;
65560;SDS011;58166;52.100;6.308;2022-09-12T00:06:50;16.83;;;12.98;;
65560;SDS011;58166;52.100;6.308;2022-09-12T00:09:17;21.05;;;13.90;;
65560;SDS011;58166;52.100;6.308;2022-09-12T00:11:45;17.52;;;12.75;;
65560;SDS011;58166;52.100;6.308;2022-09-12T00:14:13;19.98;;;14.13;;
65560;SDS011;58166;52.100;6.308;2022-09-12T00:16:41;16.85;;;13.10;;
65560;SDS011;58166;52.100;6.308;2022-09-12T00:19:09;18.00;;;14.27;;
65560;SDS011;58166;52.100;6.308;2022-09-12T00:21:38;18.65;;;14.57;;
65560;SDS011;58166;52.100;6.308;2022-09-12T00:24:06;22.02;;;15.50;;
65560;SDS011;58166;52.100;6.308;2022-09-12T00:26:34;25.48;;;15.10;;
65560;SDS011;58166;52.100;6.308;2022-09-12T00:29:02;20.95;;;15.05;;
65560;SDS011;58166;52.100;6.308;2022-09-12T00:31:29;19.60;;;13.20;;
65560;SDS011;58166;52.100;6.308;2022-09-12T00:33:58;18.10;;;13.65;;
65560;SDS011;58166;52.100;6.308;2022-09-12T00:36:27;21.60;;;14.00;;
65560;SDS011;58166;52.100;6.308;2022-09-12T00:38:56;21.63;;;14.73;;
65560;SDS011;58166;52.100;6.308;2022-09-12T00:41:24;20.45;;;14.60;;
65560;SDS011;58166;52.100;6.308;2022-09-12T00:43:52;22.75;;;14.52;;
65560;SDS011;58166;52.100;6.308;2022-09-12T00:46:30;18.63;;;13.75;;
65560;SDS011;58166;52.100;6.308;2022-09-12T00:48:59;20.25;;;14.23;;
65560;SDS011;58166;52.100;6.308;2022-09-12T00:51:28;21.92;;;14.80;;
65560;SDS011;58166;52.100;6.308;2022-09-12T00:53:57;21.73;;;15.23;;
65560;SDS011;58166;52.100;6.308;2022-09-12T00:56:26;23.33;;;15.70;;
65560;SDS011;58166;52.100;6.308;2022-09-12T00:58:55;23.77;;;15.95;;
65560;SDS011;58166;52.100;6.308;2022-09-12T01:01:24;25.25;;;14.98;;
65560;SDS011;58166;52.100;6.308;2022-09-12T01:03:57;20.27;;;14.15;;
65560;SDS011;58166;52.100;6.308;2022-09-12T01:06:25;20.23;;;14.25;;
65560;SDS011;58166;52.100;6.308;2022-09-12T01:08:53;23.42;;;16.15;;
65560;SDS011;58166;52.100;6.308;2022-09-12T01:11:22;23.85;;;16.13;;
65560;SDS011;58166;52.100;6.308;2022-09-12T01:13:50;22.45;;;15.55;;
65560;SDS011;58166;52.100;6.308;2022-09-12T01:16:17;19.58;;;13.80;;
65560;SDS011;58166;52.100;6.308;2022-09-12T01:18:49;22.75;;;15.85;;
65560;SDS011;58166;52.100;6.308;2022-09-12T01:21:19;25.42;;;17.10;;
65560;SDS011;58166;52.100;6.308;2022-09-12T01:23:58;25.90;;;16.88;;
65560;SDS011;58166;52.100;6.308;2022-09-12T01:26:41;25.67;;;17.98;;
65560;SDS011;58166;52.100;6.308;2022-09-12T01:29:20;24.67;;;16.10;;
65560;SDS011;58166;52.100;6.308;2022-09-12T01:31:54;25.55;;;16.75;;
65560;SDS011;58166;52.100;6.308;2022-09-12T01:34:27;23.40;;;15.70;;
65560;SDS011;58166;52.100;6.308;2022-09-12T01:36:57;22.67;;;14.77;;
65560;SDS011;58166;52.100;6.308;2022-09-12T01:39:28;22.95;;;14.82;;
65560;SDS011;58166;52.100;6.308;2022-09-12T01:42:01;20.25;;;13.65;;
65560;SDS011;58166;52.100;6.308;2022-09-12T01:44:34;23.00;;;16.00;;
65560;SDS011;58166;52.100;6.308;2022-09-12T01:47:05;20.95;;;14.60;;
65560;SDS011;58166;52.100;6.308;2022-09-12T01:49:37;21.02;;;15.07;;
65560;SDS011;58166;52.100;6.308;2022-09-12T01:52:08;24.40;;;15.82;;
65560;SDS011;58166;52.100;6.308;2022-09-12T01:54:39;21.48;;;14.50;;
65560;SDS011;58166;52.100;6.308;2022-09-12T01:57:09;24.65;;;15.27;;
65560;SDS011;58166;52.100;6.308;2022-09-12T01:59:39;23.00;;;14.38;;
65560;SDS011;58166;52.100;6.308;2022-09-12T02:02:11;27.83;;;15.65;;
65560;SDS011;58166;52.100;6.308;2022-09-12T02:04:41;20.75;;;15.13;;
65560;SDS011;58166;52.100;6.308;2022-09-12T02:07:13;20.20;;;14.20;;
65560;SDS011;58166;52.100;6.308;2022-09-12T02:09:43;21.08;;;13.98;;
65560;SDS011;58166;52.100;6.308;2022-09-12T02:12:11;23.13;;;15.57;;
65560;SDS011;58166;52.100;6.308;2022-09-12T02:14:41;23.77;;;15.02;;
65560;SDS011;58166;52.100;6.308;2022-09-12T02:17:13;18.52;;;14.18;;
65560;SDS011;58166;52.100;6.308;2022-09-12T02:19:43;19.05;;;14.18;;
65560;SDS011;58166;52.100;6.308;2022-09-12T02:22:12;20.50;;;15.25;;
65560;SDS011;58166;52.100;6.308;2022-09-12T02:24:42;22.75;;;15.85;;
65560;SDS011;58166;52.100;6.308;2022-09-12T02:27:12;25.38;;;15.65;;
65560;SDS011;58166;52.100;6.308;2022-09-12T02:29:40;18.98;;;14.38;;
65560;SDS011;58166;52.100;6.308;2022-09-12T02:32:10;22.13;;;13.65;;
65560;SDS011;58166;52.100;6.308;2022-09-12T02:34:43;18.90;;;13.15;;
65560;SDS011;58166;52.100;6.308;2022-09-12T02:37:16;19.02;;;14.07;;
65560;SDS011;58166;52.100;6.308;2022-09-12T02:39:44;21.85;;;14.75;;
65560;SDS011;58166;52.100;6.308;2022-09-12T02:42:12;23.33;;;15.63;;
65560;SDS011;58166;52.100;6.308;2022-09-12T02:44:39;22.15;;;14.35;;
65560;SDS011;58166;52.100;6.308;2022-09-12T02:47:07;20.77;;;13.77;;
65560;SDS011;58166;52.100;6.308;2022-09-12T02:49:36;22.48;;;15.38;;
65560;SDS011;58166;52.100;6.308;2022-09-12T02:52:05;24.83;;;15.73;;
65560;SDS011;58166;52.100;6.308;2022-09-12T02:54:32;24.83;;;16.10;;
65560;SDS011;58166;52.100;6.308;2022-09-12T02:56:59;24.65;;;16.00;;
65560;SDS011;58166;52.100;6.308;2022-09-12T02:59:27;24.40;;;15.25;;
65560;SDS011;58166;52.100;6.308;2022-09-12T03:01:58;24.15;;;15.88;;
65560;SDS011;58166;52.100;6.308;2022-09-12T03:04:36;23.17;;;14.88;;
65560;SDS011;58166;52.100;6.308;2022-09-12T03:07:10;23.65;;;14.93;;
65560;SDS011;58166;52.100;6.308;2022-09-12T03:09:40;22.70;;;14.98;;
65560;SDS011;58166;52.100;6.308;2022-09-12T03:12:12;20.73;;;13.95;;
65560;SDS011;58166;52.100;6.308;2022-09-12T03:17:35;25.55;;;16.25;;
65560;SDS011;58166;52.100;6.308;2022-09-12T03:20:07;22.27;;;14.68;;
65560;SDS011;58166;52.100;6.308;2022-09-12T03:22:38;21.57;;;14.93;;
65560;SDS011;58166;52.100;6.308;2022-09-12T03:25:16;21.77;;;14.93;;
65560;SDS011;58166;52.100;6.308;2022-09-12T03:27:49;21.20;;;14.43;;
65560;SDS011;58166;52.100;6.308;2022-09-12T03:30:19;21.90;;;14.13;;
65560;SDS011;58166;52.100;6.308;2022-09-12T03:32:47;22.25;;;13.80;;
65560;SDS011;58166;52.100;6.308;2022-09-12T03:35:16;21.13;;;14.40;;
65560;SDS011;58166;52.100;6.308;2022-09-12T03:37:50;22.83;;;14.18;;
65560;SDS011;58166;52.100;6.308;2022-09-12T03:40:18;23.38;;;13.95;;
65560;SDS011;58166;52.100;6.308;2022-09-12T03:42:45;24.10;;;15.32;;
65560;SDS011;58166;52.100;6.308;2022-09-12T03:45:13;22.88;;;15.80;;
65560;SDS011;58166;52.100;6.308;2022-09-12T03:47:41;24.30;;;14.23;;
65560;SDS011;58166;52.100;6.308;2022-09-12T03:50:09;24.80;;;15.90;;
65560;SDS011;58166;52.100;6.308;2022-09-12T03:52:36;23.95;;;15.55;;
65560;SDS011;58166;52.100;6.308;2022-09-12T03:55:05;23.60;;;15.73;;
65560;SDS011;58166;52.100;6.308;2022-09-12T03:57:33;24.15;;;14.48;;
65560;SDS011;58166;52.100;6.308;2022-09-12T04:00:00;23.20;;;14.75;;
65560;SDS011;58166;52.100;6.308;2022-09-12T04:02:28;22.85;;;15.40;;
65560;SDS011;58166;52.100;6.308;2022-09-12T04:04:55;21.73;;;13.60;;
65560;SDS011;58166;52.100;6.308;2022-09-12T04:07:23;22.83;;;14.57;;
65560;SDS011;58166;52.100;6.308;2022-09-12T04:09:50;23.20;;;14.32;;
65560;SDS011;58166;52.100;6.308;2022-09-12T04:12:19;27.15;;;15.43;;
65560;SDS011;58166;52.100;6.308;2022-09-12T04:14:47;23.40;;;15.10;;
65560;SDS011;58166;52.100;6.308;2022-09-12T04:17:15;27.48;;;16.33;;
65560;SDS011;58166;52.100;6.308;2022-09-12T04:19:42;22.88;;;14.32;;
65560;SDS011;58166;52.100;6.308;2022-09-12T04:22:10;21.70;;;14.00;;
65560;SDS011;58166;52.100;6.308;2022-09-12T04:24:37;27.33;;;14.60;;
65560;SDS011;58166;52.100;6.308;2022-09-12T04:27:06;25.83;;;15.88;;
65560;SDS011;58166;52.100;6.308;2022-09-12T04:29:34;23.65;;;14.63;;
65560;SDS011;58166;52.100;6.308;2022-09-12T04:32:02;22.27;;;13.85;;
65560;SDS011;58166;52.100;6.308;2022-09-12T04:34:29;24.95;;;15.70;;
65560;SDS011;58166;52.100;6.308;2022-09-12T04:36:57;26.17;;;15.70;;
65560;SDS011;58166;52.100;6.308;2022-09-12T04:39:25;26.85;;;16.83;;
65560;SDS011;58166;52.100;6.308;2022-09-12T04:41:52;25.33;;;14.98;;
65560;SDS011;58166;52.100;6.308;2022-09-12T04:44:20;24.90;;;15.25;;
65560;SDS011;58166;52.100;6.308;2022-09-12T04:46:48;31.35;;;16.48;;
65560;SDS011;58166;52.100;6.308;2022-09-12T04:49:16;29.45;;;16.98;;
65560;SDS011;58166;52.100;6.308;2022-09-12T04:51:44;23.83;;;14.85;;
65560;SDS011;58166;52.100;6.308;2022-09-12T04:54:13;27.90;;;15.68;;
65560;SDS011;58166;52.100;6.308;2022-09-12T04:56:41;31.05;;;16.95;;
65560;SDS011;58166;52.100;6.308;2022-09-12T04:59:09;28.20;;;16.30;;
65560;SDS011;58166;52.100;6.308;2022-09-12T05:01:37;32.97;;;19.23;;
65560;SDS011;58166;52.100;6.308;2022-09-12T05:04:06;30.13;;;17.77;;
65560;SDS011;58166;52.100;6.308;2022-09-12T05:06:34;32.55;;;17.13;;
65560;SDS011;58166;52.100;6.308;2022-09-12T05:09:03;28.00;;;16.55;;
65560;SDS011;58166;52.100;6.308;2022-09-12T05:11:32;32.22;;;16.92;;
65560;SDS011;58166;52.100;6.308;2022-09-12T05:14:19;28.88;;;16.20;;
65560;SDS011;58166;52.100;6.308;2022-09-12T05:16:47;32.80;;;17.30;;
65560;SDS011;58166;52.100;6.308;2022-09-12T05:19:16;31.25;;;16.92;;
65560;SDS011;58166;52.100;6.308;2022-09-12T05:21:44;31.42;;;17.63;;
65560;SDS011;58166;52.100;6.308;2022-09-12T05:24:11;35.50;;;19.35;;
65560;SDS011;58166;52.100;6.308;2022-09-12T05:26:38;33.22;;;18.58;;
65560;SDS011;58166;52.100;6.308;2022-09-12T05:29:06;31.13;;;16.23;;
65560;SDS011;58166;52.100;6.308;2022-09-12T05:31:33;31.98;;;17.35;;
65560;SDS011;58166;52.100;6.308;2022-09-12T05:34:01;36.90;;;18.45;;
65560;SDS011;58166;52.100;6.308;2022-09-12T05:36:33;32.50;;;17.15;;
65560;SDS011;58166;52.100;6.308;2022-09-12T05:39:02;40.05;;;21.90;;
65560;SDS011;58166;52.100;6.308;2022-09-12T05:41:30;42.55;;;22.45;;
65560;SDS011;58166;52.100;6.308;2022-09-12T05:43:59;41.63;;;22.60;;
65560;SDS011;58166;52.100;6.308;2022-09-12T05:46:28;41.08;;;22.10;;
65560;SDS011;58166;52.100;6.308;2022-09-12T05:48:56;46.47;;;26.88;;
65560;SDS011;58166;52.100;6.308;2022-09-12T05:51:24;50.55;;;25.83;;
65560;SDS011;58166;52.100;6.308;2022-09-12T05:53:54;47.60;;;25.55;;
65560;SDS011;58166;52.100;6.308;2022-09-12T05:56:22;58.45;;;28.88;;
65560;SDS011;58166;52.100;6.308;2022-09-12T05:58:51;65.70;;;32.88;;
65560;SDS011;58166;52.100;6.308;2022-09-12T06:01:19;66.50;;;32.75;;
65560;SDS011;58166;52.100;6.308;2022-09-12T06:03:47;64.95;;;34.58;;
65560;SDS011;58166;52.100;6.308;2022-09-12T06:06:16;73.60;;;36.10;;
65560;SDS011;58166;52.100;6.308;2022-09-12T06:08:44;75.60;;;38.08;;
65560;SDS011;58166;52.100;6.308;2022-09-12T06:11:15;78.05;;;36.75;;
65560;SDS011;58166;52.100;6.308;2022-09-12T06:13:43;74.55;;;35.50;;
65560;SDS011;58166;52.100;6.308;2022-09-12T06:16:10;74.38;;;36.97;;
65560;SDS011;58166;52.100;6.308;2022-09-12T06:18:38;67.85;;;34.45;;
65560;SDS011;58166;52.100;6.308;2022-09-12T06:21:07;73.97;;;35.50;;
65560;SDS011;58166;52.100;6.308;2022-09-12T06:23:34;69.53;;;36.13;;
65560;SDS011;58166;52.100;6.308;2022-09-12T06:26:02;68.28;;;34.00;;
65560;SDS011;58166;52.100;6.308;2022-09-12T06:28:33;68.38;;;34.08;;
65560;SDS011;58166;52.100;6.308;2022-09-12T06:31:01;71.13;;;35.97;;
65560;SDS011;58166;52.100;6.308;2022-09-12T06:33:30;68.97;;;34.70;;
65560;SDS011;58166;52.100;6.308;2022-09-12T06:36:02;67.50;;;33.80;;
65560;SDS011;58166;52.100;6.308;2022-09-12T06:38:36;65.85;;;33.33;;
65560;SDS011;58166;52.100;6.308;2022-09-12T06:41:04;60.33;;;33.65;;
65560;SDS011;58166;52.100;6.308;2022-09-12T06:43:34;66.22;;;34.33;;
65560;SDS011;58166;52.100;6.308;2022-09-12T06:46:02;58.67;;;32.30;;
65560;SDS011;58166;52.100;6.308;2022-09-12T06:48:30;67.95;;;34.75;;
65560;SDS011;58166;52.100;6.308;2022-09-12T06:50:58;64.88;;;33.45;;
65560;SDS011;58166;52.100;6.308;2022-09-12T06:53:26;60.17;;;33.30;;
65560;SDS011;58166;52.100;6.308;2022-09-12T06:55:54;61.67;;;32.38;;
65560;SDS011;58166;52.100;6.308;2022-09-12T06:58:22;62.75;;;33.08;;
65560;SDS011;58166;52.100;6.308;2022-09-12T07:00:51;68.38;;;32.63;;
65560;SDS011;58166;52.100;6.308;2022-09-12T07:03:24;60.50;;;33.80;;
65560;SDS011;58166;52.100;6.308;2022-09-12T07:05:51;60.53;;;31.20;;
65560;SDS011;58166;52.100;6.308;2022-09-12T07:08:19;53.47;;;31.38;;
65560;SDS011;58166;52.100;6.308;2022-09-12T07:10:46;56.88;;;32.13;;
65560;SDS011;58166;52.100;6.308;2022-09-12T07:13:13;50.95;;;31.33;;
65560;SDS011;58166;52.100;6.308;2022-09-12T07:15:41;58.35;;;32.65;;
65560;SDS011;58166;52.100;6.308;2022-09-12T07:18:09;58.97;;;31.45;;
65560;SDS011;58166;52.100;6.308;2022-09-12T07:20:37;52.88;;;28.55;;
65560;SDS011;58166;52.100;6.308;2022-09-12T07:23:04;59.38;;;32.75;;
65560;SDS011;58166;52.100;6.308;2022-09-12T07:25:32;54.42;;;29.30;;
65560;SDS011;58166;52.100;6.308;2022-09-12T07:27:59;52.50;;;30.30;;
65560;SDS011;58166;52.100;6.308;2022-09-12T07:30:27;55.00;;;31.45;;
65560;SDS011;58166;52.100;6.308;2022-09-12T07:32:55;48.60;;;28.10;;
65560;SDS011;58166;52.100;6.308;2022-09-12T07:35:23;50.25;;;29.00;;
65560;SDS011;58166;52.100;6.308;2022-09-12T07:37:51;53.50;;;29.95;;
65560;SDS011;58166;52.100;6.308;2022-09-12T07:40:19;46.35;;;28.20;;
65560;SDS011;58166;52.100;6.308;2022-09-12T07:42:46;54.30;;;28.92;;
65560;SDS011;58166;52.100;6.308;2022-09-12T07:45:14;47.88;;;28.50;;
65560;SDS011;58166;52.100;6.308;2022-09-12T07:47:42;40.53;;;25.85;;
65560;SDS011;58166;52.100;6.308;2022-09-12T07:50:09;47.33;;;28.73;;
65560;SDS011;58166;52.100;6.308;2022-09-12T07:52:38;46.55;;;28.15;;
65560;SDS011;58166;52.100;6.308;2022-09-12T07:55:05;41.47;;;26.70;;
65560;SDS011;58166;52.100;6.308;2022-09-12T07:57:33;39.83;;;25.13;;
65560;SDS011;58166;52.100;6.308;2022-09-12T08:00:00;44.55;;;26.15;;
65560;SDS011;58166;52.100;6.308;2022-09-12T08:02:29;41.67;;;27.60;;
65560;SDS011;58166;52.100;6.308;2022-09-12T08:04:56;43.72;;;27.23;;
65560;SDS011;58166;52.100;6.308;2022-09-12T08:07:23;48.30;;;27.63;;
65560;SDS011;58166;52.100;6.308;2022-09-12T08:09:52;46.33;;;28.55;;
65560;SDS011;58166;52.100;6.308;2022-09-12T08:12:20;51.10;;;27.70;;
65560;SDS011;58166;52.100;6.308;2022-09-12T08:14:47;39.85;;;25.60;;
65560;SDS011;58166;52.100;6.308;2022-09-12T08:17:14;39.88;;;25.73;;
65560;SDS011;58166;52.100;6.308;2022-09-12T08:19:42;47.58;;;27.52;;
65560;SDS011;58166;52.100;6.308;2022-09-12T08:22:10;39.50;;;25.98;;
65560;SDS011;58166;52.100;6.308;2022-09-12T08:24:37;36.72;;;24.63;;
65560;SDS011;58166;52.100;6.308;2022-09-12T08:27:06;41.60;;;26.05;;
65560;SDS011;58166;52.100;6.308;2022-09-12T08:29:34;40.35;;;24.83;;
65560;SDS011;58166;52.100;6.308;2022-09-12T08:32:01;38.33;;;24.55;;
65560;SDS011;58166;52.100;6.308;2022-09-12T08:34:29;38.58;;;23.35;;
65560;SDS011;58166;52.100;6.308;2022-09-12T08:36:56;37.92;;;25.10;;
65560;SDS011;58166;52.100;6.308;2022-09-12T08:39:24;37.15;;;23.40;;
65560;SDS011;58166;52.100;6.308;2022-09-12T08:41:55;35.55;;;24.33;;
65560;SDS011;58166;52.100;6.308;2022-09-12T08:44:29;37.70;;;25.33;;
65560;SDS011;58166;52.100;6.308;2022-09-12T08:49:50;37.40;;;24.52;;
65560;SDS011;58166;52.100;6.308;2022-09-12T08:52:21;37.30;;;25.05;;
65560;SDS011;58166;52.100;6.308;2022-09-12T08:54:49;37.05;;;25.08;;
65560;SDS011;58166;52.100;6.308;2022-09-12T08:57:17;34.85;;;24.05;;
65560;SDS011;58166;52.100;6.308;2022-09-12T08:59:46;34.53;;;24.90;;
65560;SDS011;58166;52.100;6.308;2022-09-12T09:02:20;35.80;;;24.33;;
65560;SDS011;58166;52.100;6.308;2022-09-12T09:04:51;35.97;;;24.00;;
65560;SDS011;58166;52.100;6.308;2022-09-12T09:07:28;36.25;;;25.05;;
65560;SDS011;58166;52.100;6.308;2022-09-12T09:10:02;33.90;;;23.38;;
65560;SDS011;58166;52.100;6.308;2022-09-12T09:12:35;32.03;;;22.92;;
65560;SDS011;58166;52.100;6.308;2022-09-12T09:15:09;34.45;;;24.20;;
65560;SDS011;58166;52.100;6.308;2022-09-12T09:17:38;32.83;;;23.23;;
65560;SDS011;58166;52.100;6.308;2022-09-12T09:20:09;32.33;;;22.17;;
65560;SDS011;58166;52.100;6.308;2022-09-12T09:22:41;32.28;;;22.52;;
65560;SDS011;58166;52.100;6.308;2022-09-12T09:25:11;31.45;;;22.17;;
65560;SDS011;58166;52.100;6.308;2022-09-12T09:27:41;33.90;;;21.83;;
65560;SDS011;58166;52.100;6.308;2022-09-12T09:30:13;30.92;;;21.77;;
65560;SDS011;58166;52.100;6.308;2022-09-12T09:32:41;33.85;;;21.95;;
65560;SDS011;58166;52.100;6.308;2022-09-12T09:35:11;28.35;;;20.65;;
65560;SDS011;58166;52.100;6.308;2022-09-12T09:37:41;29.17;;;20.42;;
65560;SDS011;58166;52.100;6.308;2022-09-12T09:40:13;29.98;;;21.50;;
65560;SDS011;58166;52.100;6.308;2022-09-12T09:42:43;26.65;;;20.15;;
65560;SDS011;58166;52.100;6.308;2022-09-12T09:45:13;29.77;;;19.52;;
65560;SDS011;58166;52.100;6.308;2022-09-12T09:47:43;27.95;;;19.65;;
65560;SDS011;58166;52.100;6.308;2022-09-12T09:50:12;25.13;;;18.85;;
65560;SDS011;58166;52.100;6.308;2022-09-12T09:52:41;23.40;;;18.10;;
65560;SDS011;58166;52.100;6.308;2022-09-12T09:55:11;25.10;;;19.25;;
65560;SDS011;58166;52.100;6.308;2022-09-12T09:57:42;22.63;;;17.13;;
65560;SDS011;58166;52.100;6.308;2022-09-12T10:00:24;24.50;;;18.02;;
65560;SDS011;58166;52.100;6.308;2022-09-12T10:02:59;24.40;;;18.65;;
65560;SDS011;58166;52.100;6.308;2022-09-12T10:05:28;24.33;;;18.65;;
65560;SDS011;58166;52.100;6.308;2022-09-12T10:07:56;24.35;;;17.15;;
65560;SDS011;58166;52.100;6.308;2022-09-12T10:10:24;21.25;;;15.82;;
65560;SDS011;58166;52.100;6.308;2022-09-12T10:12:51;23.92;;;16.30;;
65560;SDS011;58166;52.100;6.308;2022-09-12T10:15:33;20.45;;;14.73;;
65560;SDS011;58166;52.100;6.308;2022-09-12T10:18:01;17.65;;;15.23;;
65560;SDS011;58166;52.100;6.308;2022-09-12T10:20:30;19.05;;;15.57;;
65560;SDS011;58166;52.100;6.308;2022-09-12T10:22:58;20.80;;;15.25;;
65560;SDS011;58166;52.100;6.308;2022-09-12T10:25:26;18.73;;;14.35;;
65560;SDS011;58166;52.100;6.308;2022-09-12T10:27:55;23.20;;;14.68;;
65560;SDS011;58166;52.100;6.308;2022-09-12T10:30:23;20.13;;;14.68;;
65560;SDS011;58166;52.100;6.308;2022-09-12T10:32:55;19.88;;;13.73;;
65560;SDS011;58166;52.100;6.308;2022-09-12T10:35:24;17.75;;;13.45;;
65560;SDS011;58166;52.100;6.308;2022-09-12T10:37:55;16.40;;;13.27;;
65560;SDS011;58166;52.100;6.308;2022-09-12T10:40:25;16.45;;;12.55;;
65560;SDS011;58166;52.100;6.308;2022-09-12T10:42:54;18.95;;;13.80;;
65560;SDS011;58166;52.100;6.308;2022-09-12T10:45:25;16.88;;;13.65;;
65560;SDS011;58166;52.100;6.308;2022-09-12T10:47:56;16.08;;;12.52;;
65560;SDS011;58166;52.100;6.308;2022-09-12T10:50:30;14.95;;;12.27;;
65560;SDS011;58166;52.100;6.308;2022-09-12T10:53:11;15.88;;;12.02;;
65560;SDS011;58166;52.100;6.308;2022-09-12T10:55:40;15.02;;;12.68;;
65560;SDS011;58166;52.100;6.308;2022-09-12T10:58:12;14.32;;;11.48;;
65560;SDS011;58166;52.100;6.308;2022-09-12T11:00:45;15.73;;;12.15;;
65560;SDS011;58166;52.100;6.308;2022-09-12T11:03:19;19.42;;;11.80;;
65560;SDS011;58166;52.100;6.308;2022-09-12T11:05:50;15.80;;;11.48;;
65560;SDS011;58166;52.100;6.308;2022-09-12T11:08:22;16.55;;;10.93;;
65560;SDS011;58166;52.100;6.308;2022-09-12T11:10:54;14.10;;;10.43;;
65560;SDS011;58166;52.100;6.308;2022-09-12T11:13:28;19.25;;;10.18;;
65560;SDS011;58166;52.100;6.308;2022-09-12T11:16:06;10.65;;;9.10;;
65560;SDS011;58166;52.100;6.308;2022-09-12T11:18:40;9.82;;;8.70;;
65560;SDS011;58166;52.100;6.308;2022-09-12T11:21:14;9.27;;;7.80;;
65560;SDS011;58166;52.100;6.308;2022-09-12T11:23:49;12.23;;;7.78;;
65560;SDS011;58166;52.100;6.308;2022-09-12T11:28:59;11.20;;;8.18;;
65560;SDS011;58166;52.100;6.308;2022-09-12T11:31:35;9.20;;;6.43;;
65560;SDS011;58166;52.100;6.308;2022-09-12T11:34:09;7.68;;;5.85;;
65560;SDS011;58166;52.100;6.308;2022-09-12T11:36:38;10.25;;;5.63;;
65560;SDS011;58166;52.100;6.308;2022-09-12T11:39:11;10.48;;;7.20;;
65560;SDS011;58166;52.100;6.308;2022-09-12T11:41:40;10.32;;;6.35;;
65560;SDS011;58166;52.100;6.308;2022-09-12T11:44:12;10.93;;;7.15;;
65560;SDS011;58166;52.100;6.308;2022-09-12T11:46:41;9.07;;;6.95;;
65560;SDS011;58166;52.100;6.308;2022-09-12T11:49:20;8.75;;;7.80;;
65560;SDS011;58166;52.100;6.308;2022-09-12T11:51:49;10.13;;;7.30;;
65560;SDS011;58166;52.100;6.308;2022-09-12T11:54:20;7.78;;;6.35;;
65560;SDS011;58166;52.100;6.308;2022-09-12T11:59:28;9.10;;;7.07;;
65560;SDS011;58166;52.100;6.308;2022-09-12T12:01:57;11.35;;;7.63;;
65560;SDS011;58166;52.100;6.308;2022-09-12T12:04:28;8.73;;;7.05;;
65560;SDS011;58166;52.100;6.308;2022-09-12T12:07:00;8.93;;;7.63;;
65560;SDS011;58166;52.100;6.308;2022-09-12T12:09:29;8.48;;;6.63;;
65560;SDS011;58166;52.100;6.308;2022-09-12T12:11:57;7.93;;;5.55;;
65560;SDS011;58166;52.100;6.308;2022-09-12T12:14:29;7.65;;;6.15;;
65560;SDS011;58166;52.100;6.308;2022-09-12T12:16:58;7.10;;;5.95;;
65560;SDS011;58166;52.100;6.308;2022-09-12T12:19:33;7.55;;;5.70;;
65560;SDS011;58166;52.100;6.308;2022-09-12T12:22:05;7.22;;;6.07;;
65560;SDS011;58166;52.100;6.308;2022-09-12T12:24:33;7.38;;;5.55;;
65560;SDS011;58166;52.100;6.308;2022-09-12T12:27:03;11.20;;;5.80;;
65560;SDS011;58166;52.100;6.308;2022-09-12T12:29:38;6.57;;;5.80;;
65560;SDS011;58166;52.100;6.308;2022-09-12T12:32:19;6.00;;;5.15;;
65560;SDS011;58166;52.100;6.308;2022-09-12T12:34:48;7.43;;;5.50;;
65560;SDS011;58166;52.100;6.308;2022-09-12T12:40:07;6.45;;;5.03;;
65560;SDS011;58166;52.100;6.308;2022-09-12T12:48:14;6.65;;;4.40;;
65560;SDS011;58166;52.100;6.308;2022-09-12T12:50:44;4.90;;;4.40;;
65560;SDS011;58166;52.100;6.308;2022-09-12T12:53:16;10.18;;;4.22;;
65560;SDS011;58166;52.100;6.308;2022-09-12T12:55:45;6.35;;;3.78;;
65560;SDS011;58166;52.100;6.308;2022-09-12T12:58:21;8.43;;;4.75;;
65560;SDS011;58166;52.100;6.308;2022-09-12T13:01:00;4.57;;;3.90;;
65560;SDS011;58166;52.100;6.308;2022-09-12T13:03:29;5.25;;;3.97;;
65560;SDS011;58166;52.100;6.308;2022-09-12T13:05:59;6.35;;;4.10;;
65560;SDS011;58166;52.100;6.308;2022-09-12T13:08:28;4.47;;;4.00;;
65560;SDS011;58166;52.100;6.308;2022-09-12T13:10:58;5.97;;;4.53;;
65560;SDS011;58166;52.100;6.308;2022-09-12T13:13:27;4.78;;;4.10;;
65560;SDS011;58166;52.100;6.308;2022-09-12T13:15:57;6.43;;;3.88;;
65560;SDS011;58166;52.100;6.308;2022-09-12T13:18:25;4.95;;;4.00;;
65560;SDS011;58166;52.100;6.308;2022-09-12T13:20:56;5.43;;;4.30;;
65560;SDS011;58166;52.100;6.308;2022-09-12T13:23:28;4.47;;;4.07;;
65560;SDS011;58166;52.100;6.308;2022-09-12T13:25:56;6.13;;;4.47;;
65560;SDS011;58166;52.100;6.308;2022-09-12T13:28:25;4.68;;;3.63;;
65560;SDS011;58166;52.100;6.308;2022-09-12T13:30:59;4.40;;;3.72;;
65560;SDS011;58166;52.100;6.308;2022-09-12T13:33:35;4.15;;;3.75;;
65560;SDS011;58166;52.100;6.308;2022-09-12T13:38:55;3.72;;;3.33;;
65560;SDS011;58166;52.100;6.308;2022-09-12T13:41:31;6.95;;;4.60;;
65560;SDS011;58166;52.100;6.308;2022-09-12T13:44:02;6.22;;;4.70;;
65560;SDS011;58166;52.100;6.308;2022-09-12T13:46:30;5.80;;;4.43;;
65560;SDS011;58166;52.100;6.308;2022-09-12T13:48:59;6.88;;;4.30;;
65560;SDS011;58166;52.100;6.308;2022-09-12T13:51:28;4.88;;;4.32;;
65560;SDS011;58166;52.100;6.308;2022-09-12T13:53:59;5.20;;;4.20;;
65560;SDS011;58166;52.100;6.308;2022-09-12T13:56:28;4.85;;;3.28;;
65560;SDS011;58166;52.100;6.308;2022-09-12T13:58:56;6.28;;;4.30;;
65560;SDS011;58166;52.100;6.308;2022-09-12T14:01:34;4.28;;;3.50;;
65560;SDS011;58166;52.100;6.308;2022-09-12T14:04:07;5.15;;;3.70;;
65560;SDS011;58166;52.100;6.308;2022-09-12T14:06:57;5.63;;;4.88;;
65560;SDS011;58166;52.100;6.308;2022-09-12T14:09:29;6.25;;;4.75;;
65560;SDS011;58166;52.100;6.308;2022-09-12T14:11:57;4.78;;;4.15;;
65560;SDS011;58166;52.100;6.308;2022-09-12T14:14:26;7.47;;;4.22;;
65560;SDS011;58166;52.100;6.308;2022-09-12T14:16:56;4.68;;;4.22;;
65560;SDS011;58166;52.100;6.308;2022-09-12T14:19:24;7.47;;;3.80;;
65560;SDS011;58166;52.100;6.308;2022-09-12T14:21:52;4.85;;;4.35;;
65560;SDS011;58166;52.100;6.308;2022-09-12T14:24:20;5.05;;;4.03;;
65560;SDS011;58166;52.100;6.308;2022-09-12T14:26:51;3.55;;;3.22;;
65560;SDS011;58166;52.100;6.308;2022-09-12T14:29:21;4.50;;;3.78;;
65560;SDS011;58166;52.100;6.308;2022-09-12T14:31:59;6.22;;;3.72;;
65560;SDS011;58166;52.100;6.308;2022-09-12T14:34:28;6.38;;;4.15;;
65560;SDS011;58166;52.100;6.308;2022-09-12T14:36:56;6.90;;;4.88;;
65560;SDS011;58166;52.100;6.308;2022-09-12T14:39:25;5.38;;;4.10;;
65560;SDS011;58166;52.100;6.308;2022-09-12T14:42:05;6.10;;;4.60;;
65560;SDS011;58166;52.100;6.308;2022-09-12T14:44:33;5.55;;;4.13;;
65560;SDS011;58166;52.100;6.308;2022-09-12T14:47:09;4.10;;;3.70;;
65560;SDS011;58166;52.100;6.308;2022-09-12T14:49:37;7.90;;;3.97;;
65560;SDS011;58166;52.100;6.308;2022-09-12T14:52:05;5.57;;;4.65;;
65560;SDS011;58166;52.100;6.308;2022-09-12T14:54:35;4.55;;;3.83;;
65560;SDS011;58166;52.100;6.308;2022-09-12T14:57:05;5.13;;;3.78;;
65560;SDS011;58166;52.100;6.308;2022-09-12T14:59:37;4.18;;;3.78;;
65560;SDS011;58166;52.100;6.308;2022-09-12T15:02:16;6.63;;;4.90;;
65560;SDS011;58166;52.100;6.308;2022-09-12T15:04:46;4.78;;;3.80;;
65560;SDS011;58166;52.100;6.308;2022-09-12T15:07:14;4.82;;;4.10;;